Flight Track Log - Related Links

Times and Time Zones

All times are in EDT time to prevent confusion due to time zone crossing. See the EJA122 flight status page for this flight to view local times or setup timezone preferences in your user account.

Time Position Orientation Groundspeed Altitude Reporting Facility
EDT Latitude Longitude Course Direction KTS MPH feet Rate Location/Type
Mon 05:47:16 PM 36.8844 -119.8869 319° Northwest 256 295 9,800  Level Oakland Center
Mon 05:48:17 PM 36.9397 -119.9619 313° West 306 352 10,000 1,082 Climbing Oakland Center
Mon 05:49:18 PM 37.0036 -120.0489 313° West 337 388 12,000 1,951 Climbing Oakland Center
Mon 05:50:20 PM 37.0700 -120.1381 313° West 350 403 14,000 1,951 Climbing Oakland Center
Mon 05:51:00 PM 37.1447 -120.0670 310° West  Level FlightAware Approximate
Mon 05:51:21 PM 37.1492 -120.2433 313° West 354 407 16,000  Level Oakland Center
Mon 05:53:41 PM 37.3167 -120.4667 313° West 384 442 15,700 -540 Descending Northern Cal TRACON
Mon 05:54:41 PM 37.4000 -120.5667 316° Northwest 378 435 14,200 -1,250 Descending Northern Cal TRACON
Mon 05:55:41 PM 37.4667 -120.6667 310° West 349 402 13,200 -1,000 Descending Northern Cal TRACON
Mon 05:56:41 PM 37.5333 -120.7500 315° West 349 402 12,200 -600 Descending Northern Cal TRACON
Mon 05:57:41 PM 37.6000 -120.8500 310° West 353 406 12,000 -100 Descending Northern Cal TRACON
Mon 05:58:41 PM 37.6667 -120.9333 315° West 359 413 12,000  Level Northern Cal TRACON
Mon 05:59:41 PM 37.7333 -121.0333 310° West 362 417 12,000  Level Northern Cal TRACON
Mon 06:00:41 PM 37.8000 -121.1167 315° West 362 417 12,000  Level Northern Cal TRACON
Mon 06:01:41 PM 37.8500 -121.2333 299° West 371 427 12,000  Level Northern Cal TRACON
Mon 06:02:41 PM 37.8833 -121.3500 290° West 379 436 12,000 -263 Level Northern Cal TRACON
Mon 06:03:35 PM 37.9167 -121.4667 290° West 359 413 11,500 -1,033 Descending Northern Cal TRACON
Mon 06:05:00 PM 37.9752 -121.6297 297° West  Level FlightAware Approximate
Mon 06:06:16 PM 38.0008 -121.7489 297° West 288 331 8,300  Level Oakland Center
Mon 06:07:17 PM 38.0275 -121.8375 291° West 271 312 8,000 -634 Descending Oakland Center
Mon 06:08:19 PM 38.0375 -121.9392 277° West 292 336 7,000 -976 Descending Oakland Center
Mon 06:09:20 PM 38.0439 -122.0353 275° West 281 323 6,000 -492 Descending Oakland Center
Mon 06:10:21 PM 38.0494 -122.1236 275° West 258 297 6,000 -293 Level Oakland Center
Mon 06:11:23 PM 38.0556 -122.2125 275° West 255 293 5,400 -976 Descending Oakland Center
Mon 06:12:24 PM 38.0619 -122.3011 275° West 254 292 4,000 -683 Descending Oakland Center
Mon 06:13:26 PM 38.0731 -122.4072 278° West 254 292 4,000  Level Oakland Center
Mon 06:14:27 PM 38.1042 -122.4858 297° West 254 292 4,000 -197 Level Oakland Center
Mon 06:15:28 PM 38.1431 -122.4811 North 205 236 3,600 -878 Descending Oakland Center
Mon 06:16:30 PM 38.1642 -122.4283 63° Northeast 180 207 2,200 -976 Descending Oakland Center
Mon 06:17:31 PM 38.1800 -122.3781 68° East 165 190 1,600 -295 Descending Oakland Center
Mon 06:18:32 PM 38.1878 -122.3147 81° East 175 201 1,600  Level Oakland Center
Mon 06:19:34 PM 38.1828 -122.2381 95° East 201 231 1,600  Level Oakland Center

Login

Don't have an account? Register now (free) for customized features, flight alerts, and more!